createdAt,value
2018-11-06T00:00:27.004Z,26.8
2018-11-06T00:01:29.440Z,26.8
2018-11-06T00:02:31.299Z,26.8
2018-11-06T00:03:33.210Z,26.8
2018-11-06T00:04:35.653Z,26.8
2018-11-06T00:05:37.820Z,26.9
2018-11-06T00:06:40.256Z,26.9
2018-11-06T00:07:42.423Z,26.9
2018-11-06T00:08:44.318Z,26.9
2018-11-06T00:09:46.463Z,26.9
2018-11-06T00:10:48.900Z,26.9
2018-11-06T00:11:50.787Z,26.9
2018-11-06T00:12:53.228Z,26.9
2018-11-06T00:13:55.108Z,26.9
2018-11-06T00:14:57.530Z,27
2018-11-06T00:15:59.956Z,27
2018-11-06T00:17:01.820Z,27
2018-11-06T00:18:03.719Z,27
2018-11-06T00:19:05.856Z,27
2018-11-06T00:20:08.008Z,27
2018-11-06T00:21:09.879Z,27
2018-11-06T00:22:12.030Z,27.1
2018-11-06T00:23:14.459Z,27.1
2018-11-06T00:24:16.900Z,27.1
2018-11-06T00:25:19.051Z,27.1
2018-11-06T00:26:21.198Z,27.1
2018-11-06T00:27:23.359Z,27.1
2018-11-06T00:28:25.799Z,27.1
2018-11-06T00:29:27.959Z,27.1
2018-11-06T00:30:30.390Z,27.2
2018-11-06T00:31:32.546Z,27.2
2018-11-06T00:32:34.713Z,27.2
2018-11-06T00:33:36.594Z,27.2
2018-11-06T00:34:38.454Z,27.2
2018-11-06T00:35:40.874Z,27.2
2018-11-06T00:36:43.312Z,27.2
2018-11-06T00:37:45.476Z,27.2
2018-11-06T00:38:47.356Z,27.3
2018-11-06T00:39:49.250Z,27.3
2018-11-06T00:40:51.390Z,27.3
2018-11-06T00:41:53.546Z,27.3
2018-11-06T00:42:55.170Z,27.3
2018-11-06T00:43:57.314Z,27.3
2018-11-06T00:44:59.749Z,27.3
2018-11-06T00:46:01.624Z,27.3
2018-11-06T00:47:04.060Z,27.4
2018-11-06T00:48:06.214Z,27.4
2018-11-06T00:49:08.380Z,27.4
2018-11-06T00:50:10.800Z,27.4
2018-11-06T00:51:27.320Z,27.4
2018-11-06T00:52:29.207Z,27.4
2018-11-06T00:53:31.380Z,27.4
2018-11-06T00:54:33.820Z,27.4
2018-11-06T00:55:35.413Z,27.4
2018-11-06T00:56:37.577Z,27.4
2018-11-06T00:57:39.456Z,27.4
2018-11-06T00:58:41.990Z,27.4
2018-11-06T00:59:44.409Z,27.4
2018-11-06T01:00:46.545Z,27.4
2018-11-06T01:01:48.443Z,27.4
2018-11-06T01:02:50.599Z,27.4
2018-11-06T01:03:52.758Z,27.5
2018-11-06T01:04:54.648Z,27.5
2018-11-06T01:05:57.091Z,27.5
2018-11-06T01:06:59.260Z,27.5
2018-11-06T01:08:00.859Z,27.5
2018-11-06T01:09:03.291Z,27.5
2018-11-06T01:10:05.166Z,27.5
2018-11-06T01:11:07.328Z,27.5
2018-11-06T01:12:09.505Z,27.5
2018-11-06T01:13:11.659Z,27.5
2018-11-06T01:14:13.545Z,27.5
2018-11-06T01:15:15.457Z,27.5
2018-11-06T01:16:17.080Z,27.5
2018-11-06T01:17:18.963Z,27.5
2018-11-06T01:18:21.114Z,27.5
2018-11-06T01:19:23.537Z,27.5
2018-11-06T01:20:25.958Z,27.5
2018-11-06T01:21:27.829Z,27.5
2018-11-06T01:22:30.267Z,27.5
2018-11-06T01:23:32.707Z,27.5
2018-11-06T01:24:35.130Z,27.5
2018-11-06T01:25:37.289Z,27.5
2018-11-06T01:26:39.160Z,27.5
2018-11-06T01:27:41.320Z,27.5
2018-11-06T01:28:43.482Z,27.5
2018-11-06T01:29:45.374Z,27.5
2018-11-06T01:30:47.251Z,27.5
2018-11-06T01:31:48.868Z,27.5
2018-11-06T01:32:51.306Z,27.5
2018-11-06T01:33:53.446Z,27.5
2018-11-06T01:34:54.790Z,27.5
2018-11-06T01:35:57.218Z,27.5
2018-11-06T01:36:59.649Z,27.5
2018-11-06T01:38:02.081Z,27.5
2018-11-06T01:39:04.240Z,27.5
2018-11-06T01:40:06.392Z,27.5
2018-11-06T01:41:07.998Z,27.5
2018-11-06T01:42:10.169Z,27.5
2018-11-06T01:43:12.594Z,27.5
2018-11-06T01:44:14.751Z,27.5
2018-11-06T01:45:16.368Z,27.5
2018-11-06T01:46:18.809Z,27.5
2018-11-06T01:47:21.253Z,27.5
2018-11-06T01:48:23.675Z,27.5
2018-11-06T01:49:25.829Z,27.5
2018-11-06T01:50:28.265Z,27.5
2018-11-06T01:51:30.693Z,27.5
2018-11-06T01:52:33.120Z,27.5
2018-11-06T01:53:35.276Z,27.5
2018-11-06T01:54:37.140Z,27.5
2018-11-06T01:55:39.284Z,27.5
2018-11-06T01:56:41.444Z,27.6
2018-11-06T01:57:43.903Z,27.6
2018-11-06T01:58:45.798Z,27.6
2018-11-06T01:59:47.659Z,27.6
2018-11-06T02:00:49.629Z,27.6
2018-11-06T02:01:52.060Z,27.6
2018-11-06T02:02:54.220Z,27.6
2018-11-06T02:03:56.653Z,27.6
2018-11-06T02:05:13.204Z,27.6
2018-11-06T02:06:15.375Z,27.6
2018-11-06T02:07:17.264Z,27.6
2018-11-06T02:08:19.391Z,27.6
2018-11-06T02:09:21.535Z,27.6
2018-11-06T02:10:23.967Z,27.6
2018-11-06T02:11:25.840Z,27.6
2018-11-06T02:12:27.720Z,27.6
2018-11-06T02:13:29.890Z,27.6
2018-11-06T02:14:32.315Z,27.6
2018-11-06T02:15:33.920Z,27.6
2018-11-06T02:16:35.804Z,27.6
2018-11-06T02:17:37.127Z,27.6
2018-11-06T02:18:39.295Z,27.6
2018-11-06T02:19:41.746Z,27.6
2018-11-06T02:20:43.661Z,27.6
2018-11-06T02:21:45.262Z,27.6
2018-11-06T02:22:47.400Z,27.6
2018-11-06T02:23:49.557Z,27.6
2018-11-06T02:24:51.710Z,27.6
2018-11-06T02:25:54.140Z,27.6
2018-11-06T02:26:56.310Z,27.6
2018-11-06T02:27:58.470Z,27.6
2018-11-06T02:29:00.345Z,27.6
2018-11-06T02:30:02.518Z,27.6
2018-11-06T02:31:04.939Z,27.6
2018-11-06T02:32:07.154Z,27.6
2018-11-06T02:33:08.752Z,27.6
2018-11-06T02:34:11.176Z,27.6
2018-11-06T02:35:13.343Z,27.6
2018-11-06T02:36:15.499Z,27.6
2018-11-06T02:37:17.371Z,27.6
2018-11-06T02:38:19.522Z,27.6
2018-11-06T02:39:21.960Z,27.6
2018-11-06T02:40:24.393Z,27.6
2018-11-06T02:41:26.823Z,27.6
2018-11-06T02:42:29.260Z,27.6
2018-11-06T02:43:31.388Z,27.6
2018-11-06T02:44:33.262Z,27.6
2018-11-06T02:45:35.690Z,27.6
2018-11-06T02:46:37.851Z,27.6
2018-11-06T02:47:40.005Z,27.6
2018-11-06T02:48:42.158Z,27.6
2018-11-06T02:49:44.325Z,27.6
2018-11-06T02:50:46.475Z,27.6
2018-11-06T02:51:48.342Z,27.6
2018-11-06T02:52:50.503Z,27.6
2018-11-06T02:53:52.935Z,27.6
2018-11-06T02:54:54.520Z,27.6
2018-11-06T02:55:56.617Z,27.6
2018-11-06T02:56:59.331Z,27.6
2018-11-06T02:58:01.754Z,27.6
2018-11-06T02:59:03.920Z,27.6
2018-11-06T03:00:06.072Z,27.6
2018-11-06T03:01:08.232Z,27.6
2018-11-06T03:02:10.669Z,27.6
2018-11-06T03:03:12.538Z,27.6
2018-11-06T03:04:14.684Z,27.6
2018-11-06T03:05:16.551Z,27.6
2018-11-06T03:06:18.994Z,27.6
2018-11-06T03:07:21.429Z,27.6
2018-11-06T03:08:23.862Z,27.6
2018-11-06T03:09:26.286Z,27.6
2018-11-06T03:10:29.051Z,27.6
2018-11-06T03:11:31.101Z,27.6
2018-11-06T03:12:32.694Z,27.6
2018-11-06T03:13:34.856Z,27.6
2018-11-06T03:14:37.004Z,27.6
2018-11-06T03:15:38.902Z,27.6
2018-11-06T03:16:41.177Z,27.6
2018-11-06T03:17:43.660Z,27.6
2018-11-06T03:18:46.093Z,27.6
2018-11-06T03:19:47.973Z,27.6
2018-11-06T03:20:50.422Z,27.6
2018-11-06T03:21:52.582Z,27.6
2018-11-06T03:22:54.444Z,27.6
2018-11-06T03:23:56.593Z,27.6
2018-11-06T03:24:58.194Z,27.6
2018-11-06T03:26:00.067Z,27.6
2018-11-06T03:27:02.092Z,27.6
2018-11-06T03:28:04.809Z,27.6
2018-11-06T03:29:06.987Z,27.6
2018-11-06T03:30:08.870Z,27.6
2018-11-06T03:31:11.029Z,27.6
2018-11-06T03:32:12.901Z,27.6
2018-11-06T03:33:15.329Z,27.6
2018-11-06T03:34:17.772Z,27.6
2018-11-06T03:35:19.638Z,27.6
2018-11-06T03:36:21.797Z,27.6
2018-11-06T03:37:24.238Z,27.6
2018-11-06T03:38:26.675Z,27.6
2018-11-06T03:39:28.828Z,27.6
2018-11-06T03:40:30.982Z,27.6
2018-11-06T03:41:33.149Z,27.6
2018-11-06T03:42:35.303Z,27.6
2018-11-06T03:43:37.450Z,27.6
2018-11-06T03:44:39.611Z,27.6
2018-11-06T03:45:41.765Z,27.6
2018-11-06T03:46:43.643Z,27.6
2018-11-06T03:47:45.497Z,27.6
2018-11-06T03:48:47.348Z,27.6
2018-11-06T03:49:48.931Z,27.6
2018-11-06T03:50:51.073Z,27.6
2018-11-06T03:51:53.503Z,27.6
2018-11-06T03:52:55.379Z,27.6
2018-11-06T03:53:58.418Z,27.6
2018-11-06T03:55:00.874Z,27.6
2018-11-06T03:56:03.040Z,27.6
2018-11-06T03:57:05.205Z,27.6
2018-11-06T03:58:06.243Z,27.6
2018-11-06T03:59:08.687Z,27.6
2018-11-06T04:00:10.535Z,27.6
2018-11-06T04:01:12.685Z,27.6
2018-11-06T04:02:14.559Z,27.6
2018-11-06T04:03:16.716Z,27.6
2018-11-06T04:04:18.590Z,27.6
2018-11-06T04:05:20.759Z,27.6
2018-11-06T04:06:22.902Z,27.5
2018-11-06T04:07:25.323Z,27.5
2018-11-06T04:08:27.201Z,27.5
2018-11-06T04:09:29.628Z,27.5
2018-11-06T04:10:31.791Z,27.5
2018-11-06T04:11:33.947Z,27.5
2018-11-06T04:12:36.371Z,27.5
2018-11-06T04:13:38.793Z,27.5
2018-11-06T04:14:40.944Z,27.5
2018-11-06T04:15:43.118Z,27.5
2018-11-06T04:16:45.267Z,27.5
2018-11-06T04:17:47.699Z,27.5
2018-11-06T04:18:49.862Z,27.4
2018-11-06T04:19:52.011Z,27.4
2018-11-06T04:20:54.434Z,27.4
2018-11-06T04:21:56.592Z,27.4
2018-11-06T04:22:59.034Z,27.4
2018-11-06T04:24:01.462Z,27.4
2018-11-06T04:25:03.613Z,27.4
2018-11-06T04:26:05.782Z,27.4
2018-11-06T04:27:08.213Z,27.4
2018-11-06T04:28:10.111Z,27.4
2018-11-06T04:29:12.002Z,27.4
2018-11-06T04:30:14.430Z,27.4
2018-11-06T04:31:16.854Z,27.3
2018-11-06T04:32:19.018Z,27.3
2018-11-06T04:33:21.178Z,27.3
2018-11-06T04:34:23.601Z,27.3
2018-11-06T04:35:25.749Z,27.3
2018-11-06T04:36:27.906Z,27.3
2018-11-06T04:37:30.368Z,27.3
2018-11-06T04:38:32.834Z,27.3
2018-11-06T04:39:34.724Z,27.3
2018-11-06T04:40:36.329Z,27.3
2018-11-06T04:41:38.481Z,27.3
2018-11-06T04:42:40.656Z,27.3
2018-11-06T04:43:42.811Z,27.3
2018-11-06T04:44:44.971Z,27.3
2018-11-06T04:45:47.403Z,27.3
2018-11-06T04:46:49.845Z,27.2
2018-11-06T04:47:52.294Z,27.2
2018-11-06T04:48:54.727Z,27.2
2018-11-06T04:49:57.370Z,27.2
2018-11-06T04:50:59.799Z,27.2
2018-11-06T04:52:02.240Z,27.2
2018-11-06T04:53:04.397Z,27.2
2018-11-06T04:54:06.305Z,27.2
2018-11-06T04:55:08.468Z,27.2
2018-11-06T04:56:10.920Z,27.2
2018-11-06T04:57:12.811Z,27.2
2018-11-06T04:58:15.253Z,27.2
2018-11-06T04:59:17.692Z,27.2
2018-11-06T05:00:19.846Z,27.2
2018-11-06T05:01:22.042Z,27.2
2018-11-06T05:02:24.186Z,27.2
2018-11-06T05:03:26.352Z,27.2
2018-11-06T05:04:28.301Z,27.2
2018-11-06T05:05:30.205Z,27.2
2018-11-06T05:06:32.372Z,27.2
2018-11-06T05:07:34.795Z,27.2
2018-11-06T05:08:36.946Z,27.2
2018-11-06T05:09:38.827Z,27.2
2018-11-06T05:10:41.268Z,27.2
2018-11-06T05:11:43.416Z,27.2
2018-11-06T05:12:45.843Z,27.2
2018-11-06T05:13:48.105Z,27.2
2018-11-06T05:14:50.654Z,27.2
2018-11-06T05:15:53.077Z,27.2
2018-11-06T05:16:55.520Z,27.2
2018-11-06T05:17:57.932Z,27.1
2018-11-06T05:19:00.095Z,27.1
2018-11-06T05:20:02.520Z,27.1
2018-11-06T05:21:04.968Z,27.1
2018-11-06T05:22:07.132Z,27.1
2018-11-06T05:23:08.726Z,27.1
2018-11-06T05:24:10.885Z,27.1
2018-11-06T05:25:12.844Z,27.1
2018-11-06T05:26:15.056Z,27.1
2018-11-06T05:27:17.228Z,27.1
2018-11-06T05:28:19.734Z,27.1
2018-11-06T05:29:22.162Z,27.1
2018-11-06T05:30:24.308Z,27.1
2018-11-06T05:31:26.190Z,27.1
2018-11-06T05:32:28.346Z,27.1
2018-11-06T05:33:30.778Z,27.1
2018-11-06T05:34:33.051Z,27.1
2018-11-06T05:35:35.004Z,27.1
2018-11-06T05:36:37.170Z,27.1
2018-11-06T05:37:39.063Z,27.1
2018-11-06T05:38:41.220Z,27.1
2018-11-06T05:39:43.942Z,27.1
2018-11-06T05:40:46.366Z,27.1
2018-11-06T05:41:48.787Z,27.1
2018-11-06T05:42:51.223Z,27.1
2018-11-06T05:43:53.543Z,27.1
2018-11-06T05:44:55.759Z,27.1
2018-11-06T05:45:57.904Z,27.1
2018-11-06T05:47:00.336Z,27.1
2018-11-06T05:48:02.521Z,27.1
2018-11-06T05:49:04.670Z,27.1
2018-11-06T05:50:06.559Z,27
2018-11-06T05:51:08.991Z,27.1
2018-11-06T05:52:11.417Z,27.1
2018-11-06T05:53:14.206Z,27.1
2018-11-06T05:54:16.267Z,27
2018-11-06T05:55:18.135Z,27
2018-11-06T05:56:20.269Z,27
2018-11-06T05:57:22.430Z,27
2018-11-06T05:58:24.692Z,27
2018-11-06T05:59:27.123Z,27
2018-11-06T06:00:29.747Z,27
2018-11-06T06:01:32.255Z,27
2018-11-06T06:02:34.120Z,27
2018-11-06T06:03:36.000Z,27
2018-11-06T06:04:38.432Z,27
2018-11-06T06:05:40.592Z,27
2018-11-06T06:06:42.230Z,27
2018-11-06T06:07:44.660Z,27
2018-11-06T06:08:47.095Z,27
2018-11-06T06:09:48.978Z,27
2018-11-06T06:10:51.216Z,27
2018-11-06T06:11:53.414Z,27
2018-11-06T06:12:55.552Z,27
2018-11-06T06:13:57.726Z,27
2018-11-06T06:15:00.166Z,27
2018-11-06T06:16:02.345Z,27
2018-11-06T06:17:04.263Z,27
2018-11-06T06:18:05.840Z,27
2018-11-06T06:19:07.724Z,27
2018-11-06T06:20:09.870Z,27
2018-11-06T06:21:12.042Z,27
2018-11-06T06:22:14.478Z,27
2018-11-06T06:23:16.359Z,27
2018-11-06T06:24:18.248Z,27
2018-11-06T06:25:20.130Z,27
2018-11-06T06:26:22.302Z,27
2018-11-06T06:27:24.446Z,27
2018-11-06T06:28:26.498Z,27
2018-11-06T06:29:28.733Z,27
2018-11-06T06:30:30.891Z,27
2018-11-06T06:31:33.317Z,27
2018-11-06T06:32:35.471Z,27
2018-11-06T06:33:37.646Z,27
2018-11-06T06:34:40.231Z,27
2018-11-06T06:35:43.154Z,27
2018-11-06T06:36:45.072Z,27
2018-11-06T06:37:46.948Z,27
2018-11-06T06:38:49.413Z,27
2018-11-06T06:39:52.130Z,27
2018-11-06T06:40:54.825Z,27
2018-11-06T06:41:57.172Z,27
2018-11-06T06:42:59.027Z,27
2018-11-06T06:44:01.454Z,27
2018-11-06T06:45:03.316Z,27
2018-11-06T06:46:05.515Z,27
2018-11-06T06:47:07.778Z,27
2018-11-06T06:48:10.216Z,27
2018-11-06T06:49:12.649Z,27
2018-11-06T06:50:15.075Z,26.9
2018-11-06T06:51:16.972Z,27
2018-11-06T06:52:19.396Z,26.9
2018-11-06T06:53:21.545Z,27
2018-11-06T06:54:24.108Z,27
2018-11-06T06:55:27.313Z,27
2018-11-06T06:56:29.481Z,27
2018-11-06T06:57:31.649Z,26.9
2018-11-06T06:58:33.804Z,26.9
2018-11-06T06:59:36.242Z,26.9
2018-11-06T07:00:38.684Z,26.9
2018-11-06T07:01:40.821Z,26.9
2018-11-06T07:02:43.600Z,26.9
2018-11-06T07:03:45.744Z,26.9
2018-11-06T07:04:48.161Z,26.9
2018-11-06T07:05:50.588Z,26.9
2018-11-06T07:06:53.008Z,26.9
2018-11-06T07:07:55.158Z,26.9
2018-11-06T07:08:57.312Z,26.9
2018-11-06T07:09:59.473Z,26.9
2018-11-06T07:11:01.619Z,26.9
2018-11-06T07:12:03.231Z,26.9
2018-11-06T07:13:05.994Z,26.9
2018-11-06T07:14:08.240Z,26.9
2018-11-06T07:15:10.386Z,26.9
2018-11-06T07:16:12.543Z,26.9
2018-11-06T07:17:14.965Z,27
2018-11-06T07:18:17.122Z,26.9
2018-11-06T07:19:19.620Z,26.9
2018-11-06T07:20:22.046Z,26.9
2018-11-06T07:21:24.196Z,26.9
2018-11-06T07:22:26.630Z,26.9
2018-11-06T07:23:28.496Z,26.9
2018-11-06T07:24:30.648Z,26.9
2018-11-06T07:25:32.783Z,26.9
2018-11-06T07:26:34.668Z,26.9
2018-11-06T07:27:37.095Z,26.9
2018-11-06T07:28:39.386Z,26.9
2018-11-06T07:29:41.670Z,27
2018-11-06T07:30:43.827Z,27
2018-11-06T07:31:46.260Z,26.9
2018-11-06T07:32:48.427Z,27
2018-11-06T07:33:50.851Z,27
2018-11-06T07:34:53.696Z,27
2018-11-06T07:35:56.759Z,27
2018-11-06T07:36:59.251Z,27
2018-11-06T07:38:01.380Z,27
2018-11-06T07:39:03.253Z,27
2018-11-06T07:40:05.407Z,27
2018-11-06T07:41:08.302Z,27
2018-11-06T07:42:10.980Z,27
2018-11-06T07:43:13.139Z,27
2018-11-06T07:44:15.580Z,27
2018-11-06T07:45:18.011Z,27
2018-11-06T07:46:20.158Z,27
2018-11-06T07:47:21.753Z,27
2018-11-06T07:48:23.886Z,27
2018-11-06T07:49:26.313Z,27
2018-11-06T07:50:28.568Z,26.9
2018-11-06T07:51:31.032Z,27
2018-11-06T07:52:33.177Z,27
2018-11-06T07:53:35.405Z,26.9
2018-11-06T07:54:37.615Z,26.9
2018-11-06T07:55:40.076Z,26.9
2018-11-06T07:56:42.166Z,26.9
2018-11-06T07:57:44.024Z,26.9
2018-11-06T07:58:46.174Z,26.9
2018-11-06T07:59:48.361Z,26.9
2018-11-06T08:00:50.768Z,26.9
2018-11-06T08:01:52.931Z,26.9
2018-11-06T08:02:54.810Z,26.9
2018-11-06T08:03:57.056Z,26.9
2018-11-06T08:04:58.916Z,26.9
2018-11-06T08:06:00.548Z,26.9
2018-11-06T08:07:02.708Z,26.9
2018-11-06T08:08:05.138Z,26.9
2018-11-06T08:09:07.024Z,26.9
2018-11-06T08:10:09.181Z,26.9
2018-11-06T08:11:11.612Z,26.9
2018-11-06T08:12:14.042Z,26.9
2018-11-06T08:13:15.921Z,26.9
2018-11-06T08:14:17.810Z,26.9
2018-11-06T08:15:19.720Z,26.9
2018-11-06T08:16:22.152Z,26.9
2018-11-06T08:17:24.289Z,26.9
2018-11-06T08:18:26.448Z,26.9
2018-11-06T08:19:28.883Z,26.9
2018-11-06T08:20:31.467Z,26.9
2018-11-06T08:21:34.217Z,26.9
2018-11-06T08:22:36.387Z,26.9
2018-11-06T08:23:38.404Z,26.9
2018-11-06T08:24:40.276Z,26.9
2018-11-06T08:25:42.451Z,26.9
2018-11-06T08:26:44.326Z,26.9
2018-11-06T08:27:46.682Z,26.9
2018-11-06T08:28:49.323Z,26.9
2018-11-06T08:29:51.192Z,26.9
2018-11-06T08:30:54.786Z,26.9
2018-11-06T08:31:59.160Z,26.9
2018-11-06T08:33:02.436Z,26.9
2018-11-06T08:34:04.775Z,26.9
2018-11-06T08:35:06.660Z,26.9
2018-11-06T08:36:08.808Z,26.9
2018-11-06T08:37:11.131Z,26.9
2018-11-06T08:38:13.639Z,26.9
2018-11-06T08:39:16.070Z,26.9
2018-11-06T08:40:18.237Z,26.9
2018-11-06T08:41:20.672Z,26.9
2018-11-06T08:42:23.215Z,26.9
2018-11-06T08:43:25.490Z,26.9
2018-11-06T08:44:27.679Z,26.9
2018-11-06T08:45:30.101Z,26.9
2018-11-06T08:46:32.262Z,26.9
2018-11-06T08:47:34.687Z,26.9
2018-11-06T08:48:36.847Z,26.9
2018-11-06T08:49:38.721Z,26.9
2018-11-06T08:50:41.158Z,26.9
2018-11-06T08:51:43.586Z,26.9
2018-11-06T08:52:46.020Z,26.9
2018-11-06T08:53:48.181Z,26.9
2018-11-06T08:54:50.604Z,26.9
2018-11-06T08:55:52.493Z,26.9
2018-11-06T08:56:54.644Z,26.9
2018-11-06T08:57:57.091Z,26.9
2018-11-06T08:58:59.520Z,26.9
2018-11-06T09:00:01.700Z,26.9
2018-11-06T09:01:03.301Z,26.9
2018-11-06T09:02:05.198Z,26.9
2018-11-06T09:03:07.360Z,26.9
2018-11-06T09:04:09.799Z,26.9
2018-11-06T09:05:12.225Z,26.9
2018-11-06T09:06:14.383Z,26.9
2018-11-06T09:07:16.272Z,26.9
2018-11-06T09:08:18.429Z,26.9
2018-11-06T09:09:20.590Z,26.9
2018-11-06T09:10:23.021Z,26.9
2018-11-06T09:11:25.178Z,26.9
2018-11-06T09:12:27.051Z,26.9
2018-11-06T09:13:29.210Z,26.9
2018-11-06T09:14:31.345Z,26.9
2018-11-06T09:15:32.960Z,26.9
2018-11-06T09:16:35.098Z,26.9
2018-11-06T09:17:37.260Z,26.9
2018-11-06T09:18:39.686Z,26.9
2018-11-06T09:19:41.315Z,26.9
2018-11-06T09:20:42.915Z,26.9
2018-11-06T09:21:45.348Z,26.9
2018-11-06T09:22:47.781Z,26.9
2018-11-06T09:23:49.646Z,26.9
2018-11-06T09:24:52.077Z,26.9
2018-11-06T09:25:53.683Z,26.9
2018-11-06T09:26:56.111Z,26.9
2018-11-06T09:27:58.312Z,26.9
2018-11-06T09:29:00.181Z,26.9
2018-11-06T09:30:01.759Z,26.9
2018-11-06T09:31:04.162Z,26.9
2018-11-06T09:32:06.924Z,26.9
2018-11-06T09:33:09.104Z,26.9
2018-11-06T09:34:11.554Z,26.9
2018-11-06T09:35:14.231Z,26.9
2018-11-06T09:36:16.520Z,26.9
2018-11-06T09:37:18.662Z,26.9
2018-11-06T09:38:21.199Z,26.9
2018-11-06T09:39:23.627Z,26.9
2018-11-06T09:40:25.498Z,26.9
2018-11-06T09:41:27.975Z,26.9
2018-11-06T09:42:30.615Z,26.9
2018-11-06T09:43:32.770Z,26.9
2018-11-06T09:44:35.209Z,26.9
2018-11-06T09:45:37.713Z,26.9
2018-11-06T09:46:39.873Z,26.9
2018-11-06T09:47:42.021Z,26.9
2018-11-06T09:48:43.793Z,26.9
2018-11-06T09:49:45.670Z,26.9
2018-11-06T09:50:47.822Z,26.9
2018-11-06T09:51:50.066Z,26.9
2018-11-06T09:52:52.356Z,26.9
2018-11-06T09:53:54.512Z,26.9
2018-11-06T09:54:56.948Z,26.9
2018-11-06T09:55:59.417Z,26.9
2018-11-06T09:57:01.296Z,26.9
2018-11-06T09:58:03.454Z,26.9
2018-11-06T09:59:05.626Z,26.9
2018-11-06T10:00:07.987Z,26.9
2018-11-06T10:01:10.572Z,26.9
2018-11-06T10:02:13.007Z,26.9
2018-11-06T10:03:15.439Z,26.9
2018-11-06T10:04:17.328Z,26.9
2018-11-06T10:05:19.743Z,26.9
2018-11-06T10:06:22.449Z,26.9
2018-11-06T10:07:25.603Z,26.9
2018-11-06T10:08:28.731Z,26.9
2018-11-06T10:09:30.893Z,26.9
2018-11-06T10:10:33.050Z,26.9
2018-11-06T10:11:35.214Z,26.9
2018-11-06T10:12:37.368Z,26.9
2018-11-06T10:13:39.807Z,26.9
2018-11-06T10:14:42.227Z,26.9
2018-11-06T10:15:45.000Z,26.9
2018-11-06T10:16:47.299Z,26.9
2018-11-06T10:17:49.503Z,26.9
2018-11-06T10:18:51.658Z,26.9
2018-11-06T10:19:53.831Z,26.9
2018-11-06T10:20:55.728Z,26.9
2018-11-06T10:21:57.616Z,26.9
2018-11-06T10:22:59.498Z,26.9
2018-11-06T10:24:01.672Z,26.9
2018-11-06T10:25:04.103Z,26.9
2018-11-06T10:26:05.977Z,26.9
2018-11-06T10:27:08.113Z,26.9
2018-11-06T10:28:09.740Z,26.9
2018-11-06T10:29:11.610Z,26.9
2018-11-06T10:30:14.059Z,26.9
2018-11-06T10:31:15.927Z,26.9
2018-11-06T10:32:18.070Z,26.9
2018-11-06T10:33:20.231Z,26.9
2018-11-06T10:34:22.675Z,26.9
2018-11-06T10:35:23.995Z,26.9
2018-11-06T10:36:26.168Z,26.9
2018-11-06T10:37:28.062Z,26.9
2018-11-06T10:38:30.217Z,26.9
2018-11-06T10:39:32.100Z,26.9
2018-11-06T10:40:34.252Z,26.9
2018-11-06T10:41:36.419Z,26.9
2018-11-06T10:42:38.581Z,26.9
2018-11-06T10:43:41.095Z,26.9
2018-11-06T10:44:43.375Z,26.9
2018-11-06T10:45:45.539Z,26.9
2018-11-06T10:46:47.698Z,26.9
2018-11-06T10:47:49.591Z,26.9
2018-11-06T10:48:52.030Z,26.9
2018-11-06T10:49:53.919Z,26.9
2018-11-06T10:50:56.061Z,26.9
2018-11-06T10:51:58.818Z,26.9
2018-11-06T10:53:00.708Z,26.9
2018-11-06T10:54:02.590Z,26.9
2018-11-06T10:55:04.743Z,26.9
2018-11-06T10:56:06.898Z,26.9
2018-11-06T10:57:09.026Z,26.9
2018-11-06T10:58:11.155Z,26.9
2018-11-06T10:59:12.926Z,26.9
2018-11-06T11:00:14.804Z,26.9
2018-11-06T11:01:17.249Z,26.9
2018-11-06T11:02:19.148Z,26.9
2018-11-06T11:03:21.320Z,26.9
2018-11-06T11:04:23.480Z,26.9
2018-11-06T11:05:25.645Z,26.9
2018-11-06T11:06:27.780Z,26.9
2018-11-06T11:07:29.900Z,26.9
2018-11-06T11:08:31.774Z,26.9
2018-11-06T11:09:33.939Z,26.9
2018-11-06T11:10:35.807Z,26.9
2018-11-06T11:11:37.678Z,26.9
2018-11-06T11:12:40.516Z,26.9
2018-11-06T11:13:43.225Z,26.9
2018-11-06T11:14:45.656Z,26.9
2018-11-06T11:15:47.829Z,26.9
2018-11-06T11:16:50.260Z,26.9
2018-11-06T11:17:52.696Z,26.9
2018-11-06T11:18:55.147Z,26.9
2018-11-06T11:19:57.678Z,26.9
2018-11-06T11:20:59.579Z,26.9
2018-11-06T11:22:01.199Z,26.9
2018-11-06T11:23:03.649Z,26.9
2018-11-06T11:24:05.528Z,26.9
2018-11-06T11:25:07.961Z,26.9
2018-11-06T11:26:10.397Z,26.9
2018-11-06T11:27:12.827Z,26.9
2018-11-06T11:28:14.977Z,26.9
2018-11-06T11:29:17.416Z,26.9
2018-11-06T11:30:19.031Z,26.9
2018-11-06T11:31:21.167Z,26.9
2018-11-06T11:32:23.644Z,26.9
2018-11-06T11:33:25.804Z,26.9
2018-11-06T11:34:27.707Z,26.9
2018-11-06T11:35:30.130Z,26.9
2018-11-06T11:36:32.302Z,26.9
2018-11-06T11:37:34.514Z,26.9
2018-11-06T11:38:36.493Z,26.9
2018-11-06T11:39:38.654Z,26.9
2018-11-06T11:40:41.092Z,26.9
2018-11-06T11:41:43.250Z,26.9
2018-11-06T11:42:45.405Z,26.9
2018-11-06T11:43:47.328Z,26.9
2018-11-06T11:44:48.964Z,26.9
2018-11-06T11:45:51.067Z,26.9
2018-11-06T11:46:53.520Z,26.9
2018-11-06T11:47:55.659Z,26.9
2018-11-06T11:48:57.827Z,26.9
2018-11-06T11:49:59.996Z,26.9
2018-11-06T11:51:02.164Z,26.9
2018-11-06T11:52:04.590Z,26.9
2018-11-06T11:53:06.459Z,26.9
2018-11-06T11:54:08.621Z,26.9
2018-11-06T11:55:10.842Z,26.9
2018-11-06T11:56:13.018Z,26.9
2018-11-06T11:57:15.468Z,26.9
2018-11-06T11:58:18.115Z,26.9
2018-11-06T11:59:20.240Z,26.9
2018-11-06T12:00:21.830Z,26.9
2018-11-06T12:01:24.263Z,26.9
2018-11-06T12:02:26.434Z,26.9
2018-11-06T12:03:28.871Z,26.9
2018-11-06T12:04:31.029Z,26.9
2018-11-06T12:05:32.926Z,26.9
2018-11-06T12:06:35.359Z,26.9
2018-11-06T12:07:37.257Z,26.9
2018-11-06T12:08:39.690Z,26.9
2018-11-06T12:09:42.130Z,26.9
2018-11-06T12:10:44.273Z,26.9
2018-11-06T12:11:46.700Z,26.9
2018-11-06T12:12:48.560Z,26.9
2018-11-06T12:13:50.720Z,26.9
2018-11-06T12:14:53.138Z,26.9
2018-11-06T12:15:55.029Z,26.9
2018-11-06T12:16:56.917Z,26.9
2018-11-06T12:17:59.402Z,26.9
2018-11-06T12:19:01.938Z,26.9
2018-11-06T12:20:04.101Z,26.9
2018-11-06T12:21:06.524Z,26.9
2018-11-06T12:22:08.951Z,26.9
2018-11-06T12:23:11.089Z,26.9
2018-11-06T12:24:13.665Z,26.9
2018-11-06T12:25:16.831Z,26.9
2018-11-06T12:26:20.550Z,26.9
2018-11-06T12:27:22.413Z,26.9
2018-11-06T12:28:24.582Z,26.9
2018-11-06T12:29:27.012Z,26.9
2018-11-06T12:30:29.172Z,26.9
2018-11-06T12:31:31.332Z,26.9
2018-11-06T12:32:33.311Z,26.9
2018-11-06T12:33:35.868Z,26.9
2018-11-06T12:34:38.040Z,26.9
2018-11-06T12:35:40.177Z,26.9
2018-11-06T12:36:42.250Z,26.9
2018-11-06T12:37:44.448Z,26.9
2018-11-06T12:38:46.886Z,26.9
2018-11-06T12:39:48.764Z,26.9
2018-11-06T12:40:50.922Z,26.9
2018-11-06T12:41:52.777Z,26.9
2018-11-06T12:42:55.066Z,26.9
2018-11-06T12:43:57.076Z,26.9
2018-11-06T12:44:59.246Z,26.9
2018-11-06T12:46:01.109Z,26.9
2018-11-06T12:47:03.263Z,26.9
2018-11-06T12:48:05.422Z,26.9
2018-11-06T12:49:07.283Z,26.9
2018-11-06T12:50:09.514Z,26.9
2018-11-06T12:51:12.143Z,26.9
2018-11-06T12:52:14.020Z,26.9
2018-11-06T12:53:16.144Z,26.9
2018-11-06T12:54:18.051Z,26.9
2018-11-06T12:55:19.919Z,26.9
2018-11-06T12:56:22.242Z,26.9
2018-11-06T12:57:24.107Z,26.9
2018-11-06T12:58:26.021Z,26.9
2018-11-06T12:59:28.160Z,26.9
2018-11-06T13:00:30.589Z,26.9
2018-11-06T13:01:33.021Z,26.9
2018-11-06T13:02:34.891Z,26.9
2018-11-06T13:03:36.489Z,26.9
2018-11-06T13:04:38.919Z,26.9
2018-11-06T13:05:40.803Z,26.9
2018-11-06T13:06:43.230Z,26.9
2018-11-06T13:07:45.670Z,26.9
2018-11-06T13:08:47.830Z,26.9
2018-11-06T13:09:50.430Z,26.9
2018-11-06T13:10:52.459Z,26.9
2018-11-06T13:11:54.889Z,26.9
2018-11-06T13:12:56.788Z,26.9
2018-11-06T13:13:58.679Z,26.9
2018-11-06T13:15:01.114Z,26.9
2018-11-06T13:16:03.496Z,26.9
2018-11-06T13:17:05.831Z,26.9
2018-11-06T13:18:08.548Z,26.9
2018-11-06T13:19:10.687Z,26.9
2018-11-06T13:20:12.857Z,26.9
2018-11-06T13:21:14.737Z,26.9
2018-11-06T13:22:17.167Z,26.9
2018-11-06T13:23:19.060Z,26.9
2018-11-06T13:24:21.219Z,26.9
2018-11-06T13:25:23.731Z,26.9
2018-11-06T13:26:26.385Z,26.9
2018-11-06T13:27:29.315Z,26.9
2018-11-06T13:28:31.748Z,26.9
2018-11-06T13:29:34.179Z,26.9
2018-11-06T13:30:36.499Z,26.9
2018-11-06T13:31:38.525Z,26.9
2018-11-06T13:32:40.686Z,26.9
2018-11-06T13:33:43.112Z,26.9
2018-11-06T13:34:44.977Z,26.9
2018-11-06T13:35:47.400Z,26.9
2018-11-06T13:36:49.264Z,26.9
2018-11-06T13:37:51.691Z,26.9
2018-11-06T13:38:54.135Z,26.9
2018-11-06T13:39:56.017Z,26.9
2018-11-06T13:40:58.199Z,26.9
2018-11-06T13:42:00.491Z,26.9
2018-11-06T13:43:02.145Z,26.9
2018-11-06T13:44:04.822Z,26.9
2018-11-06T13:45:07.073Z,26.9
2018-11-06T13:46:09.502Z,26.9
2018-11-06T13:47:11.375Z,26.9
2018-11-06T13:48:13.543Z,26.9
2018-11-06T13:49:15.977Z,26.9
2018-11-06T13:50:18.413Z,26.9
2018-11-06T13:51:20.595Z,26.9
2018-11-06T13:52:22.576Z,26.9
2018-11-06T13:53:25.000Z,26.9
2018-11-06T13:54:27.150Z,26.9